sensor_id;sensor_type;location;lat;lon;timestamp;P1;durP1;ratioP1;P2;durP2;ratioP2
13493;SDS011;6819;50.886;4.332;2023-07-13T00:00:02;6.00;;;1.70;;
13493;SDS011;6819;50.886;4.332;2023-07-13T00:02:33;6.28;;;2.03;;
13493;SDS011;6819;50.886;4.332;2023-07-13T00:04:59;5.32;;;1.75;;
13493;SDS011;6819;50.886;4.332;2023-07-13T00:07:25;9.35;;;1.98;;
13493;SDS011;6819;50.886;4.332;2023-07-13T00:09:51;10.50;;;2.00;;
13493;SDS011;6819;50.886;4.332;2023-07-13T00:12:50;5.93;;;1.67;;
13493;SDS011;6819;50.886;4.332;2023-07-13T00:15:17;11.35;;;2.53;;
13493;SDS011;6819;50.886;4.332;2023-07-13T00:17:47;9.45;;;1.98;;
13493;SDS011;6819;50.886;4.332;2023-07-13T00:20:13;10.30;;;2.20;;
13493;SDS011;6819;50.886;4.332;2023-07-13T00:22:39;8.60;;;2.03;;
13493;SDS011;6819;50.886;4.332;2023-07-13T00:25:05;11.00;;;2.00;;
13493;SDS011;6819;50.886;4.332;2023-07-13T00:27:32;11.45;;;2.08;;
13493;SDS011;6819;50.886;4.332;2023-07-13T00:29:58;8.63;;;2.17;;
13493;SDS011;6819;50.886;4.332;2023-07-13T00:32:24;8.35;;;2.08;;
13493;SDS011;6819;50.886;4.332;2023-07-13T00:34:51;6.53;;;1.95;;
13493;SDS011;6819;50.886;4.332;2023-07-13T00:37:17;9.68;;;2.25;;
13493;SDS011;6819;50.886;4.332;2023-07-13T00:39:43;8.20;;;2.20;;
13493;SDS011;6819;50.886;4.332;2023-07-13T00:42:09;4.25;;;1.80;;
13493;SDS011;6819;50.886;4.332;2023-07-13T00:44:36;10.55;;;2.13;;
13493;SDS011;6819;50.886;4.332;2023-07-13T00:47:04;8.52;;;1.95;;
13493;SDS011;6819;50.886;4.332;2023-07-13T00:49:30;8.32;;;2.15;;
13493;SDS011;6819;50.886;4.332;2023-07-13T00:52:02;6.93;;;2.22;;
13493;SDS011;6819;50.886;4.332;2023-07-13T00:54:31;9.80;;;2.00;;
13493;SDS011;6819;50.886;4.332;2023-07-13T00:56:59;12.23;;;2.47;;
13493;SDS011;6819;50.886;4.332;2023-07-13T00:59:25;11.18;;;2.08;;
13493;SDS011;6819;50.886;4.332;2023-07-13T01:01:52;10.48;;;2.40;;
13493;SDS011;6819;50.886;4.332;2023-07-13T01:04:18;10.70;;;2.33;;
13493;SDS011;6819;50.886;4.332;2023-07-13T01:06:44;9.50;;;2.30;;
13493;SDS011;6819;50.886;4.332;2023-07-13T01:09:12;12.30;;;2.17;;
13493;SDS011;6819;50.886;4.332;2023-07-13T01:11:38;11.48;;;3.10;;
13493;SDS011;6819;50.886;4.332;2023-07-13T01:14:04;6.03;;;2.03;;
13493;SDS011;6819;50.886;4.332;2023-07-13T01:16:31;5.25;;;1.92;;
13493;SDS011;6819;50.886;4.332;2023-07-13T01:18:57;15.77;;;2.22;;
13493;SDS011;6819;50.886;4.332;2023-07-13T01:21:24;8.32;;;2.65;;
13493;SDS011;6819;50.886;4.332;2023-07-13T01:23:50;7.53;;;2.30;;
13493;SDS011;6819;50.886;4.332;2023-07-13T01:26:16;10.40;;;2.25;;
13493;SDS011;6819;50.886;4.332;2023-07-13T01:28:42;12.23;;;2.53;;
13493;SDS011;6819;50.886;4.332;2023-07-13T01:31:08;9.00;;;2.25;;
13493;SDS011;6819;50.886;4.332;2023-07-13T01:33:36;10.52;;;2.78;;
13493;SDS011;6819;50.886;4.332;2023-07-13T01:36:02;14.63;;;2.53;;
13493;SDS011;6819;50.886;4.332;2023-07-13T01:38:28;9.93;;;2.17;;
13493;SDS011;6819;50.886;4.332;2023-07-13T01:40:54;8.20;;;2.70;;
13493;SDS011;6819;50.886;4.332;2023-07-13T01:43:20;12.15;;;2.35;;
13493;SDS011;6819;50.886;4.332;2023-07-13T01:45:46;9.65;;;2.50;;
13493;SDS011;6819;50.886;4.332;2023-07-13T01:48:12;5.95;;;2.20;;
13493;SDS011;6819;50.886;4.332;2023-07-13T01:50:39;6.93;;;2.40;;
13493;SDS011;6819;50.886;4.332;2023-07-13T01:53:05;6.82;;;2.13;;
13493;SDS011;6819;50.886;4.332;2023-07-13T01:55:31;10.18;;;2.22;;
13493;SDS011;6819;50.886;4.332;2023-07-13T01:57:57;9.40;;;2.20;;
13493;SDS011;6819;50.886;4.332;2023-07-13T02:00:23;13.68;;;2.53;;
13493;SDS011;6819;50.886;4.332;2023-07-13T02:02:50;9.25;;;2.58;;
13493;SDS011;6819;50.886;4.332;2023-07-13T02:05:16;9.55;;;2.25;;
13493;SDS011;6819;50.886;4.332;2023-07-13T02:07:42;7.57;;;2.50;;
13493;SDS011;6819;50.886;4.332;2023-07-13T02:10:09;9.35;;;2.35;;
13493;SDS011;6819;50.886;4.332;2023-07-13T02:12:35;11.10;;;2.13;;
13493;SDS011;6819;50.886;4.332;2023-07-13T02:15:02;4.82;;;2.03;;
13493;SDS011;6819;50.886;4.332;2023-07-13T02:17:28;10.52;;;2.35;;
13493;SDS011;6819;50.886;4.332;2023-07-13T02:19:54;10.40;;;2.42;;
13493;SDS011;6819;50.886;4.332;2023-07-13T02:22:20;10.70;;;2.10;;
13493;SDS011;6819;50.886;4.332;2023-07-13T02:24:46;8.80;;;2.50;;
13493;SDS011;6819;50.886;4.332;2023-07-13T02:27:12;11.23;;;2.38;;
13493;SDS011;6819;50.886;4.332;2023-07-13T02:29:38;9.25;;;2.08;;
13493;SDS011;6819;50.886;4.332;2023-07-13T02:32:05;7.53;;;2.28;;
13493;SDS011;6819;50.886;4.332;2023-07-13T02:34:31;9.82;;;2.60;;
13493;SDS011;6819;50.886;4.332;2023-07-13T02:36:57;9.55;;;2.47;;
13493;SDS011;6819;50.886;4.332;2023-07-13T02:39:23;9.77;;;2.72;;
13493;SDS011;6819;50.886;4.332;2023-07-13T02:41:49;10.80;;;2.70;;
13493;SDS011;6819;50.886;4.332;2023-07-13T02:44:15;9.80;;;2.60;;
13493;SDS011;6819;50.886;4.332;2023-07-13T02:46:41;5.88;;;2.17;;
13493;SDS011;6819;50.886;4.332;2023-07-13T02:49:07;12.23;;;2.90;;
13493;SDS011;6819;50.886;4.332;2023-07-13T02:51:34;12.13;;;2.55;;
13493;SDS011;6819;50.886;4.332;2023-07-13T02:54:00;10.52;;;3.55;;
13493;SDS011;6819;50.886;4.332;2023-07-13T02:56:27;9.65;;;2.80;;
13493;SDS011;6819;50.886;4.332;2023-07-13T02:58:54;17.38;;;2.75;;
13493;SDS011;6819;50.886;4.332;2023-07-13T03:01:20;11.77;;;3.25;;
13493;SDS011;6819;50.886;4.332;2023-07-13T03:03:47;10.30;;;2.47;;
13493;SDS011;6819;50.886;4.332;2023-07-13T03:06:13;8.55;;;2.65;;
13493;SDS011;6819;50.886;4.332;2023-07-13T03:08:40;9.52;;;2.42;;
13493;SDS011;6819;50.886;4.332;2023-07-13T03:11:06;11.82;;;2.67;;
13493;SDS011;6819;50.886;4.332;2023-07-13T03:13:33;11.75;;;3.40;;
13493;SDS011;6819;50.886;4.332;2023-07-13T03:15:59;10.90;;;2.40;;
13493;SDS011;6819;50.886;4.332;2023-07-13T03:18:26;10.43;;;2.58;;
13493;SDS011;6819;50.886;4.332;2023-07-13T03:20:53;11.07;;;3.03;;
13493;SDS011;6819;50.886;4.332;2023-07-13T03:23:20;15.55;;;3.97;;
13493;SDS011;6819;50.886;4.332;2023-07-13T03:25:46;11.18;;;2.88;;
13493;SDS011;6819;50.886;4.332;2023-07-13T03:28:12;8.43;;;2.40;;
13493;SDS011;6819;50.886;4.332;2023-07-13T03:30:38;13.48;;;3.00;;
13493;SDS011;6819;50.886;4.332;2023-07-13T03:33:04;14.32;;;2.90;;
13493;SDS011;6819;50.886;4.332;2023-07-13T03:35:30;10.18;;;2.40;;
13493;SDS011;6819;50.886;4.332;2023-07-13T03:37:58;12.15;;;2.88;;
13493;SDS011;6819;50.886;4.332;2023-07-13T03:40:24;12.18;;;2.90;;
13493;SDS011;6819;50.886;4.332;2023-07-13T03:42:51;10.80;;;2.80;;
13493;SDS011;6819;50.886;4.332;2023-07-13T03:45:17;11.18;;;3.00;;
13493;SDS011;6819;50.886;4.332;2023-07-13T03:47:43;14.32;;;3.38;;
13493;SDS011;6819;50.886;4.332;2023-07-13T03:50:09;14.07;;;2.92;;
13493;SDS011;6819;50.886;4.332;2023-07-13T03:52:35;10.60;;;2.58;;
13493;SDS011;6819;50.886;4.332;2023-07-13T03:55:01;9.07;;;2.70;;
13493;SDS011;6819;50.886;4.332;2023-07-13T03:57:28;14.57;;;2.95;;
13493;SDS011;6819;50.886;4.332;2023-07-13T03:59:54;10.00;;;2.67;;
13493;SDS011;6819;50.886;4.332;2023-07-13T04:02:20;6.70;;;3.05;;
13493;SDS011;6819;50.886;4.332;2023-07-13T04:04:46;11.07;;;2.63;;
13493;SDS011;6819;50.886;4.332;2023-07-13T04:07:12;8.27;;;2.97;;
13493;SDS011;6819;50.886;4.332;2023-07-13T04:09:38;10.18;;;2.63;;
13493;SDS011;6819;50.886;4.332;2023-07-13T04:12:04;11.25;;;2.90;;
13493;SDS011;6819;50.886;4.332;2023-07-13T04:14:30;19.50;;;3.13;;
13493;SDS011;6819;50.886;4.332;2023-07-13T04:16:56;11.48;;;2.90;;
13493;SDS011;6819;50.886;4.332;2023-07-13T04:19:23;11.35;;;3.00;;
13493;SDS011;6819;50.886;4.332;2023-07-13T04:21:49;12.50;;;3.13;;
13493;SDS011;6819;50.886;4.332;2023-07-13T04:24:15;11.70;;;3.00;;
13493;SDS011;6819;50.886;4.332;2023-07-13T04:26:41;12.25;;;3.35;;
13493;SDS011;6819;50.886;4.332;2023-07-13T04:29:07;14.55;;;3.33;;
13493;SDS011;6819;50.886;4.332;2023-07-13T04:31:33;12.52;;;3.10;;
13493;SDS011;6819;50.886;4.332;2023-07-13T04:33:59;12.00;;;3.90;;
13493;SDS011;6819;50.886;4.332;2023-07-13T04:36:25;18.50;;;3.40;;
13493;SDS011;6819;50.886;4.332;2023-07-13T04:38:52;16.88;;;3.85;;
13493;SDS011;6819;50.886;4.332;2023-07-13T04:41:21;14.77;;;3.50;;
13493;SDS011;6819;50.886;4.332;2023-07-13T04:43:47;7.40;;;3.03;;
13493;SDS011;6819;50.886;4.332;2023-07-13T04:46:15;18.42;;;4.57;;
13493;SDS011;6819;50.886;4.332;2023-07-13T04:48:42;10.68;;;2.67;;
13493;SDS011;6819;50.886;4.332;2023-07-13T04:51:09;18.60;;;3.83;;
13493;SDS011;6819;50.886;4.332;2023-07-13T04:53:35;9.95;;;2.97;;
13493;SDS011;6819;50.886;4.332;2023-07-13T04:56:02;8.20;;;3.47;;
13493;SDS011;6819;50.886;4.332;2023-07-13T04:58:28;12.95;;;2.88;;
13493;SDS011;6819;50.886;4.332;2023-07-13T05:00:59;12.60;;;2.92;;
13493;SDS011;6819;50.886;4.332;2023-07-13T05:03:25;9.85;;;2.90;;
13493;SDS011;6819;50.886;4.332;2023-07-13T05:05:55;14.10;;;3.63;;
13493;SDS011;6819;50.886;4.332;2023-07-13T05:08:21;7.95;;;2.63;;
13493;SDS011;6819;50.886;4.332;2023-07-13T05:10:47;14.10;;;3.72;;
13493;SDS011;6819;50.886;4.332;2023-07-13T05:13:13;14.05;;;3.20;;
13493;SDS011;6819;50.886;4.332;2023-07-13T05:15:39;14.75;;;3.00;;
13493;SDS011;6819;50.886;4.332;2023-07-13T05:18:05;13.25;;;2.92;;
13493;SDS011;6819;50.886;4.332;2023-07-13T05:20:31;12.60;;;3.15;;
13493;SDS011;6819;50.886;4.332;2023-07-13T05:22:57;10.48;;;3.05;;
13493;SDS011;6819;50.886;4.332;2023-07-13T05:25:23;9.93;;;2.97;;
13493;SDS011;6819;50.886;4.332;2023-07-13T05:27:49;17.75;;;3.63;;
13493;SDS011;6819;50.886;4.332;2023-07-13T05:30:15;11.57;;;2.75;;
13493;SDS011;6819;50.886;4.332;2023-07-13T05:32:41;12.05;;;2.97;;
13493;SDS011;6819;50.886;4.332;2023-07-13T05:35:07;19.48;;;3.10;;
13493;SDS011;6819;50.886;4.332;2023-07-13T05:37:33;8.30;;;2.65;;
13493;SDS011;6819;50.886;4.332;2023-07-13T05:39:59;9.43;;;3.25;;
13493;SDS011;6819;50.886;4.332;2023-07-13T05:42:25;10.07;;;3.30;;
13493;SDS011;6819;50.886;4.332;2023-07-13T05:44:52;16.50;;;3.85;;
13493;SDS011;6819;50.886;4.332;2023-07-13T05:47:18;10.70;;;2.92;;
13493;SDS011;6819;50.886;4.332;2023-07-13T05:49:44;13.38;;;3.20;;
13493;SDS011;6819;50.886;4.332;2023-07-13T05:52:10;10.02;;;2.72;;
13493;SDS011;6819;50.886;4.332;2023-07-13T05:54:36;12.20;;;2.97;;
13493;SDS011;6819;50.886;4.332;2023-07-13T05:57:02;14.73;;;3.03;;
13493;SDS011;6819;50.886;4.332;2023-07-13T05:59:28;15.25;;;3.65;;
13493;SDS011;6819;50.886;4.332;2023-07-13T06:01:54;14.98;;;3.05;;
13493;SDS011;6819;50.886;4.332;2023-07-13T06:04:20;12.85;;;2.58;;
13493;SDS011;6819;50.886;4.332;2023-07-13T06:06:46;8.85;;;2.30;;
13493;SDS011;6819;50.886;4.332;2023-07-13T06:09:12;14.88;;;2.45;;
13493;SDS011;6819;50.886;4.332;2023-07-13T06:11:38;10.45;;;3.17;;
13493;SDS011;6819;50.886;4.332;2023-07-13T06:14:04;13.88;;;3.38;;
13493;SDS011;6819;50.886;4.332;2023-07-13T06:16:30;14.82;;;3.10;;
13493;SDS011;6819;50.886;4.332;2023-07-13T06:18:56;15.50;;;3.25;;
13493;SDS011;6819;50.886;4.332;2023-07-13T06:21:22;14.93;;;3.45;;
13493;SDS011;6819;50.886;4.332;2023-07-13T06:23:49;20.75;;;3.97;;
13493;SDS011;6819;50.886;4.332;2023-07-13T06:26:16;17.70;;;3.28;;
13493;SDS011;6819;50.886;4.332;2023-07-13T06:28:42;11.57;;;2.90;;
13493;SDS011;6819;50.886;4.332;2023-07-13T06:31:09;14.38;;;3.53;;
13493;SDS011;6819;50.886;4.332;2023-07-13T06:33:35;11.07;;;3.03;;
13493;SDS011;6819;50.886;4.332;2023-07-13T06:36:02;13.15;;;3.35;;
13493;SDS011;6819;50.886;4.332;2023-07-13T06:38:28;11.20;;;3.08;;
13493;SDS011;6819;50.886;4.332;2023-07-13T06:40:55;15.23;;;3.42;;
13493;SDS011;6819;50.886;4.332;2023-07-13T06:43:21;17.17;;;3.88;;
13493;SDS011;6819;50.886;4.332;2023-07-13T06:45:48;8.70;;;3.00;;
13493;SDS011;6819;50.886;4.332;2023-07-13T06:48:18;8.95;;;2.88;;
13493;SDS011;6819;50.886;4.332;2023-07-13T06:50:44;15.48;;;3.15;;
13493;SDS011;6819;50.886;4.332;2023-07-13T06:53:11;16.40;;;3.65;;
13493;SDS011;6819;50.886;4.332;2023-07-13T06:55:38;12.13;;;3.53;;
13493;SDS011;6819;50.886;4.332;2023-07-13T06:58:04;15.15;;;3.72;;
13493;SDS011;6819;50.886;4.332;2023-07-13T07:00:30;26.77;;;3.85;;
13493;SDS011;6819;50.886;4.332;2023-07-13T07:02:56;15.20;;;3.60;;
13493;SDS011;6819;50.886;4.332;2023-07-13T07:05:22;16.90;;;3.60;;
13493;SDS011;6819;50.886;4.332;2023-07-13T07:07:49;9.55;;;3.55;;
13493;SDS011;6819;50.886;4.332;2023-07-13T07:10:15;11.35;;;3.47;;
13493;SDS011;6819;50.886;4.332;2023-07-13T07:12:41;16.27;;;3.90;;
13493;SDS011;6819;50.886;4.332;2023-07-13T07:15:07;16.90;;;3.33;;
13493;SDS011;6819;50.886;4.332;2023-07-13T07:17:33;17.45;;;3.55;;
13493;SDS011;6819;50.886;4.332;2023-07-13T07:19:59;15.25;;;3.67;;
13493;SDS011;6819;50.886;4.332;2023-07-13T07:22:26;10.02;;;2.90;;
13493;SDS011;6819;50.886;4.332;2023-07-13T07:24:52;10.80;;;3.28;;
13493;SDS011;6819;50.886;4.332;2023-07-13T07:27:19;11.02;;;3.00;;
13493;SDS011;6819;50.886;4.332;2023-07-13T07:29:45;11.32;;;3.15;;
13493;SDS011;6819;50.886;4.332;2023-07-13T07:32:11;14.15;;;3.05;;
13493;SDS011;6819;50.886;4.332;2023-07-13T07:34:37;11.27;;;3.03;;
13493;SDS011;6819;50.886;4.332;2023-07-13T07:37:03;10.48;;;3.17;;
13493;SDS011;6819;50.886;4.332;2023-07-13T07:39:29;11.05;;;3.08;;
13493;SDS011;6819;50.886;4.332;2023-07-13T07:41:55;13.02;;;2.85;;
13493;SDS011;6819;50.886;4.332;2023-07-13T07:44:22;9.50;;;2.45;;
13493;SDS011;6819;50.886;4.332;2023-07-13T07:46:48;12.43;;;2.95;;
13493;SDS011;6819;50.886;4.332;2023-07-13T07:49:14;9.38;;;2.60;;
13493;SDS011;6819;50.886;4.332;2023-07-13T07:51:40;9.52;;;2.80;;
13493;SDS011;6819;50.886;4.332;2023-07-13T07:54:06;13.23;;;3.42;;
13493;SDS011;6819;50.886;4.332;2023-07-13T07:56:32;10.95;;;3.10;;
13493;SDS011;6819;50.886;4.332;2023-07-13T07:58:58;11.13;;;3.38;;
13493;SDS011;6819;50.886;4.332;2023-07-13T08:01:24;10.95;;;2.80;;
13493;SDS011;6819;50.886;4.332;2023-07-13T08:03:50;14.93;;;3.30;;
13493;SDS011;6819;50.886;4.332;2023-07-13T08:06:17;14.40;;;3.83;;
13493;SDS011;6819;50.886;4.332;2023-07-13T08:08:45;12.85;;;3.55;;
13493;SDS011;6819;50.886;4.332;2023-07-13T08:11:11;6.85;;;2.85;;
13493;SDS011;6819;50.886;4.332;2023-07-13T08:13:37;16.20;;;3.08;;
13493;SDS011;6819;50.886;4.332;2023-07-13T08:16:04;10.82;;;3.35;;
13493;SDS011;6819;50.886;4.332;2023-07-13T08:18:31;10.68;;;3.03;;
13493;SDS011;6819;50.886;4.332;2023-07-13T08:20:57;8.95;;;2.90;;
13493;SDS011;6819;50.886;4.332;2023-07-13T08:23:24;10.10;;;3.03;;
13493;SDS011;6819;50.886;4.332;2023-07-13T08:25:53;11.18;;;3.15;;
13493;SDS011;6819;50.886;4.332;2023-07-13T08:28:22;11.70;;;3.88;;
13493;SDS011;6819;50.886;4.332;2023-07-13T08:30:49;14.95;;;3.30;;
13493;SDS011;6819;50.886;4.332;2023-07-13T08:33:16;12.05;;;2.85;;
13493;SDS011;6819;50.886;4.332;2023-07-13T08:35:45;13.95;;;2.95;;
13493;SDS011;6819;50.886;4.332;2023-07-13T08:38:11;10.63;;;3.22;;
13493;SDS011;6819;50.886;4.332;2023-07-13T08:40:37;8.80;;;2.90;;
13493;SDS011;6819;50.886;4.332;2023-07-13T08:43:04;8.57;;;2.60;;
13493;SDS011;6819;50.886;4.332;2023-07-13T08:45:38;13.82;;;3.15;;
13493;SDS011;6819;50.886;4.332;2023-07-13T08:50:51;11.50;;;2.95;;
13493;SDS011;6819;50.886;4.332;2023-07-13T08:53:18;8.02;;;2.75;;
13493;SDS011;6819;50.886;4.332;2023-07-13T08:55:44;7.90;;;3.63;;
13493;SDS011;6819;50.886;4.332;2023-07-13T08:58:11;12.52;;;3.20;;
13493;SDS011;6819;50.886;4.332;2023-07-13T09:00:58;11.25;;;3.05;;
13493;SDS011;6819;50.886;4.332;2023-07-13T09:03:29;15.52;;;3.35;;
13493;SDS011;6819;50.886;4.332;2023-07-13T09:05:57;9.38;;;2.72;;
13493;SDS011;6819;50.886;4.332;2023-07-13T09:11:00;8.60;;;2.65;;
13493;SDS011;6819;50.886;4.332;2023-07-13T09:13:34;7.47;;;2.75;;
13493;SDS011;6819;50.886;4.332;2023-07-13T09:16:03;13.00;;;3.20;;
13493;SDS011;6819;50.886;4.332;2023-07-13T09:18:53;9.48;;;2.45;;
13493;SDS011;6819;50.886;4.332;2023-07-13T09:21:24;8.35;;;2.67;;
13493;SDS011;6819;50.886;4.332;2023-07-13T09:23:53;9.32;;;2.75;;
13493;SDS011;6819;50.886;4.332;2023-07-13T09:26:22;9.73;;;2.67;;
13493;SDS011;6819;50.886;4.332;2023-07-13T09:29:11;10.20;;;2.58;;
13493;SDS011;6819;50.886;4.332;2023-07-13T09:31:57;9.27;;;2.78;;
13493;SDS011;6819;50.886;4.332;2023-07-13T09:34:22;16.35;;;2.85;;
13493;SDS011;6819;50.886;4.332;2023-07-13T09:36:48;9.15;;;2.47;;
13493;SDS011;6819;50.886;4.332;2023-07-13T09:39:15;11.80;;;2.50;;
13493;SDS011;6819;50.886;4.332;2023-07-13T09:44:13;10.40;;;2.58;;
13493;SDS011;6819;50.886;4.332;2023-07-13T09:46:43;12.02;;;3.08;;
13493;SDS011;6819;50.886;4.332;2023-07-13T09:49:10;7.60;;;2.40;;
13493;SDS011;6819;50.886;4.332;2023-07-13T09:51:43;6.82;;;2.20;;
13493;SDS011;6819;50.886;4.332;2023-07-13T09:54:19;7.35;;;2.58;;
13493;SDS011;6819;50.886;4.332;2023-07-13T09:56:45;9.85;;;2.22;;
13493;SDS011;6819;50.886;4.332;2023-07-13T09:59:18;7.63;;;2.90;;
13493;SDS011;6819;50.886;4.332;2023-07-13T10:01:44;7.70;;;2.40;;
13493;SDS011;6819;50.886;4.332;2023-07-13T10:04:13;5.55;;;2.40;;
13493;SDS011;6819;50.886;4.332;2023-07-13T10:06:43;7.30;;;2.60;;
13493;SDS011;6819;50.886;4.332;2023-07-13T10:09:10;8.40;;;2.10;;
13493;SDS011;6819;50.886;4.332;2023-07-13T10:11:39;8.40;;;2.60;;
13493;SDS011;6819;50.886;4.332;2023-07-13T10:14:13;8.30;;;2.47;;
13493;SDS011;6819;50.886;4.332;2023-07-13T10:16:39;10.10;;;2.60;;
13493;SDS011;6819;50.886;4.332;2023-07-13T10:19:19;2.33;;;1.83;;
13493;SDS011;6819;50.886;4.332;2023-07-13T10:21:55;6.80;;;2.67;;
13493;SDS011;6819;50.886;4.332;2023-07-13T10:24:27;6.90;;;2.00;;
13493;SDS011;6819;50.886;4.332;2023-07-13T10:27:03;5.78;;;2.10;;
13493;SDS011;6819;50.886;4.332;2023-07-13T10:29:34;6.97;;;2.30;;
13493;SDS011;6819;50.886;4.332;2023-07-13T10:32:02;7.43;;;2.55;;
13493;SDS011;6819;50.886;4.332;2023-07-13T10:34:29;6.13;;;2.60;;
13493;SDS011;6819;50.886;4.332;2023-07-13T10:36:56;6.32;;;2.42;;
13493;SDS011;6819;50.886;4.332;2023-07-13T10:39:23;8.73;;;2.35;;
13493;SDS011;6819;50.886;4.332;2023-07-13T10:42:11;7.07;;;2.20;;
13493;SDS011;6819;50.886;4.332;2023-07-13T10:44:37;7.50;;;2.50;;
13493;SDS011;6819;50.886;4.332;2023-07-13T10:47:04;7.38;;;2.80;;
13493;SDS011;6819;50.886;4.332;2023-07-13T10:49:32;9.30;;;2.70;;
13493;SDS011;6819;50.886;4.332;2023-07-13T10:52:00;5.95;;;2.40;;
13493;SDS011;6819;50.886;4.332;2023-07-13T10:54:27;5.70;;;2.40;;
13493;SDS011;6819;50.886;4.332;2023-07-13T10:59:38;12.18;;;2.80;;
13493;SDS011;6819;50.886;4.332;2023-07-13T11:02:10;6.00;;;2.85;;
13493;SDS011;6819;50.886;4.332;2023-07-13T11:04:42;9.00;;;2.58;;
13493;SDS011;6819;50.886;4.332;2023-07-13T11:07:18;6.07;;;2.22;;
13493;SDS011;6819;50.886;4.332;2023-07-13T11:09:45;5.43;;;2.67;;
13493;SDS011;6819;50.886;4.332;2023-07-13T11:15:04;5.95;;;2.30;;
13493;SDS011;6819;50.886;4.332;2023-07-13T11:22:43;3.92;;;1.95;;
13493;SDS011;6819;50.886;4.332;2023-07-13T11:30:32;3.88;;;1.95;;
13493;SDS011;6819;50.886;4.332;2023-07-13T11:33:04;6.68;;;2.58;;
13493;SDS011;6819;50.886;4.332;2023-07-13T11:35:37;7.53;;;2.40;;
13493;SDS011;6819;50.886;4.332;2023-07-13T11:38:14;8.45;;;2.00;;
13493;SDS011;6819;50.886;4.332;2023-07-13T11:40:42;4.78;;;2.00;;
13493;SDS011;6819;50.886;4.332;2023-07-13T11:43:11;5.03;;;2.55;;
13493;SDS011;6819;50.886;4.332;2023-07-13T11:45:38;4.78;;;2.38;;
13493;SDS011;6819;50.886;4.332;2023-07-13T11:48:04;6.20;;;1.95;;
13493;SDS011;6819;50.886;4.332;2023-07-13T11:50:31;16.48;;;2.92;;
13493;SDS011;6819;50.886;4.332;2023-07-13T11:52:57;11.20;;;2.35;;
13493;SDS011;6819;50.886;4.332;2023-07-13T11:55:24;10.93;;;2.60;;
13493;SDS011;6819;50.886;4.332;2023-07-13T11:57:54;7.93;;;2.33;;
13493;SDS011;6819;50.886;4.332;2023-07-13T12:00:23;9.07;;;2.67;;
13493;SDS011;6819;50.886;4.332;2023-07-13T12:02:50;6.97;;;2.40;;
13493;SDS011;6819;50.886;4.332;2023-07-13T12:05:17;10.60;;;2.35;;
13493;SDS011;6819;50.886;4.332;2023-07-13T12:07:44;9.82;;;2.17;;
13493;SDS011;6819;50.886;4.332;2023-07-13T12:12:47;6.97;;;2.05;;
13493;SDS011;6819;50.886;4.332;2023-07-13T12:15:13;6.28;;;2.20;;
13493;SDS011;6819;50.886;4.332;2023-07-13T12:17:39;8.35;;;2.22;;
13493;SDS011;6819;50.886;4.332;2023-07-13T12:20:17;6.47;;;2.10;;
13493;SDS011;6819;50.886;4.332;2023-07-13T12:22:47;7.30;;;1.85;;
13493;SDS011;6819;50.886;4.332;2023-07-13T12:25:13;2.92;;;1.58;;
13493;SDS011;6819;50.886;4.332;2023-07-13T12:27:40;5.20;;;1.52;;
13493;SDS011;6819;50.886;4.332;2023-07-13T12:32:56;2.50;;;1.80;;
13493;SDS011;6819;50.886;4.332;2023-07-13T12:35:23;4.07;;;2.00;;
13493;SDS011;6819;50.886;4.332;2023-07-13T12:37:50;6.03;;;1.70;;
13493;SDS011;6819;50.886;4.332;2023-07-13T12:40:20;4.97;;;1.90;;
13493;SDS011;6819;50.886;4.332;2023-07-13T12:42:47;4.63;;;1.88;;
13493;SDS011;6819;50.886;4.332;2023-07-13T12:48:12;3.85;;;2.13;;
13493;SDS011;6819;50.886;4.332;2023-07-13T12:50:41;5.03;;;2.17;;
13493;SDS011;6819;50.886;4.332;2023-07-13T12:53:12;6.50;;;2.50;;
13493;SDS011;6819;50.886;4.332;2023-07-13T12:55:43;5.75;;;2.83;;
13493;SDS011;6819;50.886;4.332;2023-07-13T12:58:13;4.93;;;3.00;;
13493;SDS011;6819;50.886;4.332;2023-07-13T13:00:47;6.43;;;2.55;;
13493;SDS011;6819;50.886;4.332;2023-07-13T13:03:34;5.93;;;2.70;;
13493;SDS011;6819;50.886;4.332;2023-07-13T13:06:02;8.15;;;3.05;;
13493;SDS011;6819;50.886;4.332;2023-07-13T13:08:33;6.65;;;2.90;;
13493;SDS011;6819;50.886;4.332;2023-07-13T13:11:00;4.85;;;2.20;;
13493;SDS011;6819;50.886;4.332;2023-07-13T13:13:26;3.38;;;2.08;;
13493;SDS011;6819;50.886;4.332;2023-07-13T13:15:53;5.93;;;2.58;;
13493;SDS011;6819;50.886;4.332;2023-07-13T13:18:19;3.92;;;1.95;;
13493;SDS011;6819;50.886;4.332;2023-07-13T13:20:47;3.90;;;1.95;;
13493;SDS011;6819;50.886;4.332;2023-07-13T13:23:14;5.55;;;2.13;;
13493;SDS011;6819;50.886;4.332;2023-07-13T13:25:43;5.00;;;2.42;;
13493;SDS011;6819;50.886;4.332;2023-07-13T13:28:14;4.53;;;2.25;;
13493;SDS011;6819;50.886;4.332;2023-07-13T13:30:41;3.80;;;2.20;;
13493;SDS011;6819;50.886;4.332;2023-07-13T13:33:09;5.18;;;2.30;;
13493;SDS011;6819;50.886;4.332;2023-07-13T13:35:37;3.67;;;1.70;;
13493;SDS011;6819;50.886;4.332;2023-07-13T13:38:16;7.80;;;2.42;;
13493;SDS011;6819;50.886;4.332;2023-07-13T13:40:43;3.78;;;2.08;;
13493;SDS011;6819;50.886;4.332;2023-07-13T13:45:42;4.35;;;1.88;;
13493;SDS011;6819;50.886;4.332;2023-07-13T13:48:18;4.82;;;1.70;;
13493;SDS011;6819;50.886;4.332;2023-07-13T13:50:45;6.40;;;2.00;;
13493;SDS011;6819;50.886;4.332;2023-07-13T13:53:11;3.80;;;1.90;;
13493;SDS011;6819;50.886;4.332;2023-07-13T13:55:40;3.03;;;1.98;;
13493;SDS011;6819;50.886;4.332;2023-07-13T13:58:10;7.20;;;1.90;;
13493;SDS011;6819;50.886;4.332;2023-07-13T14:00:39;4.47;;;1.92;;
13493;SDS011;6819;50.886;4.332;2023-07-13T14:03:05;4.38;;;1.77;;
13493;SDS011;6819;50.886;4.332;2023-07-13T14:05:34;3.10;;;1.80;;
13493;SDS011;6819;50.886;4.332;2023-07-13T14:08:00;7.18;;;2.33;;
13493;SDS011;6819;50.886;4.332;2023-07-13T14:10:26;5.20;;;2.38;;
13493;SDS011;6819;50.886;4.332;2023-07-13T14:12:53;4.97;;;1.95;;
13493;SDS011;6819;50.886;4.332;2023-07-13T14:17:47;4.20;;;1.80;;
13493;SDS011;6819;50.886;4.332;2023-07-13T14:20:15;4.55;;;1.95;;
13493;SDS011;6819;50.886;4.332;2023-07-13T14:22:41;5.78;;;1.92;;
13493;SDS011;6819;50.886;4.332;2023-07-13T14:25:11;4.85;;;1.95;;
13493;SDS011;6819;50.886;4.332;2023-07-13T14:27:37;3.10;;;1.60;;
13493;SDS011;6819;50.886;4.332;2023-07-13T14:30:08;5.88;;;2.20;;
13493;SDS011;6819;50.886;4.332;2023-07-13T14:32:35;5.28;;;1.90;;
13493;SDS011;6819;50.886;4.332;2023-07-13T14:35:01;4.93;;;1.75;;
13493;SDS011;6819;50.886;4.332;2023-07-13T14:37:27;5.15;;;2.03;;
13493;SDS011;6819;50.886;4.332;2023-07-13T14:39:53;3.88;;;2.03;;
13493;SDS011;6819;50.886;4.332;2023-07-13T14:42:19;7.15;;;2.03;;
13493;SDS011;6819;50.886;4.332;2023-07-13T14:44:45;4.40;;;2.00;;
13493;SDS011;6819;50.886;4.332;2023-07-13T14:47:11;5.65;;;2.05;;
13493;SDS011;6819;50.886;4.332;2023-07-13T14:49:38;3.67;;;2.08;;
13493;SDS011;6819;50.886;4.332;2023-07-13T14:52:15;3.72;;;1.85;;
13493;SDS011;6819;50.886;4.332;2023-07-13T14:54:41;5.10;;;1.75;;
13493;SDS011;6819;50.886;4.332;2023-07-13T14:57:18;3.90;;;1.90;;
13493;SDS011;6819;50.886;4.332;2023-07-13T14:59:44;6.28;;;1.80;;
13493;SDS011;6819;50.886;4.332;2023-07-13T15:04:55;5.70;;;2.08;;
13493;SDS011;6819;50.886;4.332;2023-07-13T15:07:22;5.88;;;1.92;;
13493;SDS011;6819;50.886;4.332;2023-07-13T15:09:48;5.20;;;1.90;;
13493;SDS011;6819;50.886;4.332;2023-07-13T15:12:15;5.72;;;2.10;;
13493;SDS011;6819;50.886;4.332;2023-07-13T15:14:42;5.72;;;1.95;;
13493;SDS011;6819;50.886;4.332;2023-07-13T15:17:31;3.55;;;2.00;;
13493;SDS011;6819;50.886;4.332;2023-07-13T15:19:54;3.10;;;1.90;;
13493;SDS011;6819;50.886;4.332;2023-07-13T15:22:21;5.32;;;1.80;;
13493;SDS011;6819;50.886;4.332;2023-07-13T15:24:47;7.72;;;2.22;;
13493;SDS011;6819;50.886;4.332;2023-07-13T15:27:13;5.15;;;1.80;;
13493;SDS011;6819;50.886;4.332;2023-07-13T15:29:39;5.85;;;1.90;;
13493;SDS011;6819;50.886;4.332;2023-07-13T15:32:16;8.52;;;2.40;;
13493;SDS011;6819;50.886;4.332;2023-07-13T15:34:44;10.45;;;2.00;;
13493;SDS011;6819;50.886;4.332;2023-07-13T15:37:14;2.83;;;1.65;;